Time;durP1;ratioP1;P1;durP2;ratioP2;P2;SDS_P1;SDS_P2;PMS_P1;PMS_P2;Temp;Humidity;BMP_temperature;BMP_pressure;BME280_temperature;BME280_humidity;BME280_pressure;Samples;Min_cycle;Max_cycle;Signal;HPM_P1;HPM_P2
2024/01/01 00:01:26;;;;;;;225.15;152.10;;;9.00;99.90;;;;;;6180115;23;20663;-70
2024/01/01 00:04:12;;;;;;;200.50;143.07;;;8.90;99.90;;;;;;6193240;23;20008;-70
2024/01/01 00:06:58;;;;;;;192.00;139.85;;;8.90;99.90;;;;;;6209414;23;20025;-70
2024/01/01 00:09:43;;;;;;;186.57;134.13;;;8.90;99.90;;;;;;6199427;23;20087;-71
2024/01/01 00:12:29;;;;;;;179.18;127.05;;;8.90;99.90;;;;;;6194827;23;20047;-70
2024/01/01 00:15:15;;;;;;;167.82;119.95;;;8.90;99.90;;;;;;6188020;23;20047;-71
2024/01/01 00:18:01;;;;;;;162.18;116.20;;;8.90;99.90;;;;;;6179919;23;20092;-70
2024/01/01 00:20:47;;;;;;;157.50;108.25;;;8.90;99.90;;;;;;6181040;23;20088;-70
2024/01/01 00:23:33;;;;;;;136.02;100.93;;;8.90;99.90;;;;;;6181772;23;20009;-70
2024/01/01 00:26:19;;;;;;;142.00;100.60;;;8.90;99.90;;;;;;6180039;23;20005;-70
2024/01/01 00:29:06;;;;;;;130.85;90.68;;;8.90;99.90;;;;;;6180281;23;20349;-70
2024/01/01 00:31:52;;;;;;;112.35;79.93;;;8.90;99.90;;;;;;6180790;23;20015;-70
2024/01/01 00:34:38;;;;;;;106.88;77.13;;;8.80;99.90;;;;;;6181868;23;20013;-70
2024/01/01 00:37:24;;;;;;;104.10;72.45;;;8.80;99.90;;;;;;6180215;23;20012;-70
2024/01/01 00:40:11;;;;;;;91.18;66.40;;;8.80;99.90;;;;;;6158838;23;20013;-71
2024/01/01 00:42:57;;;;;;;93.72;65.93;;;8.80;99.90;;;;;;6179336;23;20012;-71
2024/01/01 00:45:43;;;;;;;88.63;61.70;;;8.80;99.90;;;;;;6179716;23;20346;-71
2024/01/01 00:48:29;;;;;;;89.07;59.85;;;8.80;99.90;;;;;;6158503;23;20072;-71
2024/01/01 00:51:15;;;;;;;77.82;57.67;;;8.80;99.90;;;;;;6180331;23;20013;-70
2024/01/01 00:54:01;;;;;;;74.57;52.67;;;8.80;99.90;;;;;;6180767;23;20106;-71
2024/01/01 00:56:48;;;;;;;66.07;48.97;;;8.70;99.90;;;;;;6179203;23;20083;-71
2024/01/01 00:59:33;;;;;;;74.97;48.70;;;8.80;99.90;;;;;;6180070;23;20047;-71
2024/01/01 01:02:20;;;;;;;70.07;47.13;;;8.80;99.90;;;;;;6180738;23;20005;-69
2024/01/01 01:05:06;;;;;;;69.40;47.45;;;8.80;99.90;;;;;;6179948;23;20032;-70
2024/01/01 01:07:52;;;;;;;64.63;42.45;;;8.80;99.90;;;;;;6181874;23;20021;-70
2024/01/01 01:10:38;;;;;;;59.00;40.55;;;8.80;99.90;;;;;;6179529;23;20012;-69
2024/01/01 01:13:25;;;;;;;54.60;36.45;;;8.70;99.90;;;;;;6158593;23;20013;-69
2024/01/01 01:16:11;;;;;;;45.05;30.52;;;8.70;99.90;;;;;;6179730;23;20013;-69
2024/01/01 01:18:57;;;;;;;46.60;30.42;;;8.70;99.90;;;;;;6181676;23;20021;-69
2024/01/01 01:21:43;;;;;;;45.47;31.85;;;8.60;99.90;;;;;;6180235;23;20014;-70
2024/01/01 01:24:28;;;;;;;39.10;27.38;;;8.60;99.90;;;;;;6181028;23;20088;-69
2024/01/01 01:27:14;;;;;;;43.45;29.48;;;8.70;99.90;;;;;;6181687;23;20025;-69
2024/01/01 01:30:00;;;;;;;44.78;29.13;;;8.60;99.90;;;;;;6179817;23;20017;-70
2024/01/01 01:32:46;;;;;;;38.88;28.40;;;8.60;99.90;;;;;;6181426;23;20088;-69
2024/01/01 01:35:32;;;;;;;48.03;30.45;;;8.60;99.90;;;;;;6181041;23;20400;-69
2024/01/01 01:38:18;;;;;;;41.92;28.08;;;8.60;99.90;;;;;;6181845;23;20345;-70
2024/01/01 01:41:04;;;;;;;38.83;28.35;;;8.60;99.90;;;;;;6180906;23;20005;-70
2024/01/01 01:43:50;;;;;;;42.40;28.13;;;8.70;99.90;;;;;;6179179;23;20227;-69
2024/01/01 01:46:36;;;;;;;42.92;27.13;;;8.60;99.90;;;;;;6179209;23;20107;-70
2024/01/01 01:49:22;;;;;;;38.28;25.15;;;8.60;99.90;;;;;;6179730;23;20013;-70
2024/01/01 01:52:09;;;;;;;34.55;23.27;;;8.60;99.90;;;;;;6179863;23;20156;-70
2024/01/01 01:54:56;;;;;;;37.53;24.98;;;8.60;99.90;;;;;;6180138;23;20437;-70
2024/01/01 01:57:43;;;;;;;34.00;22.58;;;8.60;99.90;;;;;;6179720;23;20036;-70
2024/01/01 02:00:29;;;;;;;29.30;20.02;;;8.60;99.90;;;;;;6180198;23;20020;-70
2024/01/01 02:03:15;;;;;;;32.35;20.33;;;8.60;99.90;;;;;;6180087;23;20016;-70
2024/01/01 02:06:01;;;;;;;27.98;19.42;;;8.60;99.90;;;;;;6179494;23;20021;-68
2024/01/01 02:08:47;;;;;;;34.60;20.95;;;8.60;99.90;;;;;;6180305;23;20834;-70
2024/01/01 02:11:33;;;;;;;29.38;20.00;;;8.60;99.90;;;;;;6181087;23;20031;-70
2024/01/01 02:14:19;;;;;;;25.50;18.45;;;8.60;99.90;;;;;;6160907;23;20012;-69
2024/01/01 02:17:05;;;;;;;30.75;19.63;;;8.60;99.90;;;;;;6182756;23;20009;-69
2024/01/01 02:19:51;;;;;;;30.88;21.23;;;8.60;99.90;;;;;;6181770;23;20028;-70
2024/01/01 02:22:38;;;;;;;32.72;23.10;;;8.60;99.90;;;;;;6182339;23;20080;-70
2024/01/01 02:25:24;;;;;;;36.15;23.85;;;8.60;99.90;;;;;;6182480;23;20005;-69
2024/01/01 02:28:10;;;;;;;34.92;25.23;;;8.60;99.90;;;;;;6160507;23;20025;-70
2024/01/01 02:30:56;;;;;;;41.13;28.77;;;8.60;99.90;;;;;;6180219;23;20012;-70
2024/01/01 02:33:42;;;;;;;41.38;27.13;;;8.60;99.90;;;;;;6182110;23;20013;-70
2024/01/01 02:36:29;;;;;;;36.20;27.33;;;8.60;99.90;;;;;;6159493;23;20009;-71
2024/01/01 02:39:15;;;;;;;34.85;23.02;;;8.50;99.90;;;;;;6179963;23;20060;-70
2024/01/01 02:42:01;;;;;;;29.90;20.10;;;8.50;99.90;;;;;;6181798;23;20354;-70
2024/01/01 02:44:47;;;;;;;23.67;17.15;;;8.50;99.90;;;;;;6182447;23;20350;-70
2024/01/01 02:47:33;;;;;;;25.83;15.57;;;8.50;99.90;;;;;;6182805;23;20326;-69
2024/01/01 02:50:20;;;;;;;25.08;15.02;;;8.40;99.90;;;;;;6181212;23;20028;-69
2024/01/01 02:53:06;;;;;;;21.27;14.18;;;8.40;99.90;;;;;;6181381;23;20009;-70
2024/01/01 02:55:52;;;;;;;19.52;12.40;;;8.40;99.90;;;;;;6182995;23;20059;-70
2024/01/01 02:58:38;;;;;;;18.75;12.40;;;8.40;99.90;;;;;;6180972;23;20072;-70
2024/01/01 03:01:23;;;;;;;18.00;12.13;;;8.40;99.90;;;;;;6180809;23;20176;-70
2024/01/01 03:04:09;;;;;;;17.73;12.80;;;8.30;99.90;;;;;;6160790;23;20036;-70
2024/01/01 03:06:55;;;;;;;19.40;11.02;;;8.30;99.90;;;;;;6182072;23;20021;-70
2024/01/01 03:09:41;;;;;;;19.33;12.25;;;8.30;99.90;;;;;;6180491;23;20087;-70
2024/01/01 03:12:27;;;;;;;24.58;13.20;;;8.30;99.90;;;;;;6181268;23;20024;-70
2024/01/01 03:15:13;;;;;;;18.23;11.75;;;8.30;99.90;;;;;;6181477;23;20040;-69
2024/01/01 03:17:59;;;;;;;19.92;13.45;;;8.20;99.90;;;;;;6182501;23;20098;-70
2024/01/01 03:20:45;;;;;;;23.55;13.82;;;8.20;99.90;;;;;;6182367;23;20034;-71
2024/01/01 03:23:31;;;;;;;20.20;13.32;;;8.20;99.90;;;;;;6207076;23;20009;-62
2024/01/01 03:26:17;;;;;;;19.35;12.52;;;8.10;99.90;;;;;;6199833;23;20005;-62
2024/01/01 03:29:03;;;;;;;20.75;14.55;;;8.10;99.90;;;;;;6182637;23;20045;-61
2024/01/01 03:31:49;;;;;;;21.55;12.50;;;8.10;99.90;;;;;;6182607;23;20013;-62
2024/01/01 03:34:35;;;;;;;18.05;12.85;;;8.10;99.90;;;;;;6180989;23;20393;-63
2024/01/01 03:37:21;;;;;;;21.38;14.60;;;8.00;99.90;;;;;;6180559;23;20009;-62
2024/01/01 03:40:07;;;;;;;26.20;17.40;;;8.00;99.90;;;;;;6183263;23;20009;-63
2024/01/01 03:42:53;;;;;;;24.98;16.90;;;8.00;99.90;;;;;;6181143;23;20434;-62
2024/01/01 03:45:41;;;;;;;27.52;17.63;;;8.00;99.90;;;;;;6180449;23;20016;-62
2024/01/01 03:48:27;;;;;;;25.42;16.70;;;8.00;99.90;;;;;;6180563;23;20017;-63
2024/01/01 03:51:13;;;;;;;27.02;15.05;;;8.00;99.90;;;;;;6182668;23;20020;-62
2024/01/01 03:53:59;;;;;;;27.77;15.60;;;8.00;99.90;;;;;;6181073;23;20020;-63
2024/01/01 03:56:45;;;;;;;20.17;13.48;;;8.00;99.90;;;;;;6181190;23;20017;-63
2024/01/01 03:59:31;;;;;;;22.33;14.18;;;8.00;99.90;;;;;;6180025;23;20016;-62
2024/01/01 04:02:18;;;;;;;22.85;14.27;;;8.00;99.90;;;;;;6180169;23;20001;-63
2024/01/01 04:05:04;;;;;;;22.67;15.65;;;8.00;99.90;;;;;;6180825;23;20044;-63
2024/01/01 04:07:51;;;;;;;24.67;14.70;;;8.00;99.90;;;;;;6179133;23;20025;-63
2024/01/01 04:10:37;;;;;;;19.85;13.38;;;8.00;99.90;;;;;;6180306;23;20028;-63
2024/01/01 04:13:23;;;;;;;21.20;14.25;;;8.00;99.90;;;;;;6181766;23;20456;-64
2024/01/01 04:16:09;;;;;;;23.25;15.00;;;7.90;99.90;;;;;;6181431;23;20011;-63
2024/01/01 04:18:54;;;;;;;20.67;13.27;;;7.90;99.90;;;;;;6180033;23;20028;-62
2024/01/01 04:21:40;;;;;;;22.70;14.35;;;7.90;99.90;;;;;;6182248;23;20020;-62
2024/01/01 04:24:26;;;;;;;23.80;14.20;;;7.90;99.90;;;;;;6179903;23;20334;-62
2024/01/01 04:27:12;;;;;;;23.88;13.52;;;7.90;99.90;;;;;;6181603;23;20346;-62
2024/01/01 04:29:58;;;;;;;21.85;13.25;;;7.80;99.90;;;;;;6181745;23;20011;-63
2024/01/01 04:32:44;;;;;;;21.02;12.80;;;7.80;99.90;;;;;;6182298;23;20460;-62
2024/01/01 04:35:32;;;;;;;22.33;13.48;;;7.80;99.90;;;;;;6160274;23;20048;-62
2024/01/01 04:38:18;;;;;;;22.00;12.27;;;7.80;99.90;;;;;;6179954;23;20083;-61
2024/01/01 04:41:04;;;;;;;19.65;11.80;;;7.80;99.90;;;;;;6180064;23;20469;-63
2024/01/01 04:43:50;;;;;;;18.15;11.10;;;7.90;99.90;;;;;;6181766;23;20040;-62
2024/01/01 04:46:36;;;;;;;21.05;12.90;;;7.80;99.90;;;;;;6181322;23;20348;-62
2024/01/01 04:49:22;;;;;;;18.88;12.98;;;7.90;99.90;;;;;;6182447;23;20013;-61
2024/01/01 04:52:08;;;;;;;19.48;10.73;;;7.90;99.90;;;;;;6180655;23;20009;-62
2024/01/01 04:54:55;;;;;;;17.27;10.65;;;8.00;99.90;;;;;;6181512;23;20462;-63
2024/01/01 04:57:41;;;;;;;19.45;12.10;;;8.00;99.90;;;;;;6179165;23;20429;-61
2024/01/01 05:00:27;;;;;;;19.67;11.10;;;8.00;99.90;;;;;;6182013;23;20107;-61
2024/01/01 05:03:13;;;;;;;15.48;10.55;;;8.10;99.90;;;;;;6179291;23;20008;-62
2024/01/01 05:05:59;;;;;;;16.35;10.15;;;8.10;99.90;;;;;;6180410;23;20067;-62
2024/01/01 05:08:45;;;;;;;20.90;11.48;;;8.10;99.90;;;;;;6180717;23;20317;-61
2024/01/01 05:11:33;;;;;;;15.45;10.88;;;8.20;99.90;;;;;;6181196;23;20009;-61
2024/01/01 05:14:19;;;;;;;15.23;9.75;;;8.20;99.90;;;;;;6179408;23;20433;-61
2024/01/01 05:17:05;;;;;;;16.20;9.90;;;8.20;99.90;;;;;;6180658;23;20524;-62
2024/01/01 05:19:51;;;;;;;17.75;11.40;;;8.30;99.90;;;;;;6180346;23;20356;-62
2024/01/01 05:22:36;;;;;;;17.67;10.30;;;8.30;99.90;;;;;;6181380;23;20009;-63
2024/01/01 05:25:23;;;;;;;13.20;9.45;;;8.30;99.90;;;;;;6179580;23;20466;-63
2024/01/01 05:28:09;;;;;;;17.20;10.07;;;8.30;99.90;;;;;;6178469;23;20128;-63
2024/01/01 05:30:55;;;;;;;20.05;10.02;;;8.40;99.90;;;;;;6181388;23;20418;-63
2024/01/01 05:33:41;;;;;;;19.02;9.52;;;8.40;99.90;;;;;;6179593;23;20020;-63
2024/01/01 05:36:27;;;;;;;14.65;9.10;;;8.40;99.90;;;;;;6179403;23;20020;-64
2024/01/01 05:39:13;;;;;;;16.40;10.00;;;8.40;99.90;;;;;;6158331;23;20013;-63
2024/01/01 05:42:00;;;;;;;15.68;8.57;;;8.50;99.90;;;;;;6178730;23;20041;-63
2024/01/01 05:44:46;;;;;;;14.35;9.73;;;8.50;99.90;;;;;;6179013;23;20097;-63
2024/01/01 05:47:32;;;;;;;17.52;9.75;;;8.50;99.90;;;;;;6180345;23;20032;-63
2024/01/01 05:50:18;;;;;;;16.35;9.68;;;8.50;99.90;;;;;;6181612;23;20456;-64
2024/01/01 05:53:06;;;;;;;12.32;8.63;;;8.50;99.90;;;;;;6181435;23;20349;-64
2024/01/01 05:55:52;;;;;;;18.10;8.82;;;8.50;99.90;;;;;;6182369;23;20084;-63
2024/01/01 05:58:38;;;;;;;16.85;8.82;;;8.50;99.90;;;;;;6182505;23;20013;-62
2024/01/01 06:01:25;;;;;;;14.48;7.90;;;8.60;99.90;;;;;;6180905;23;20006;-63
2024/01/01 06:04:10;;;;;;;14.48;8.95;;;8.60;99.90;;;;;;6181525;23;20397;-63
2024/01/01 06:06:56;;;;;;;12.90;9.27;;;8.60;99.90;;;;;;6182295;23;20021;-63
2024/01/01 06:09:42;;;;;;;12.65;8.60;;;8.60;99.90;;;;;;6181766;23;20013;-63
2024/01/01 06:12:28;;;;;;;15.48;9.23;;;8.60;99.90;;;;;;6181991;23;20084;-63
2024/01/01 06:15:14;;;;;;;14.07;8.27;;;8.60;99.90;;;;;;6163527;23;20008;-64
2024/01/01 06:18:01;;;;;;;13.02;8.10;;;8.70;99.90;;;;;;6181890;23;20024;-63
2024/01/01 06:20:46;;;;;;;14.27;7.90;;;8.60;99.90;;;;;;6159431;23;20013;-63
2024/01/01 06:23:32;;;;;;;13.13;8.80;;;8.60;99.90;;;;;;6181977;23;20009;-62
2024/01/01 06:26:18;;;;;;;15.30;9.18;;;8.60;99.90;;;;;;6182108;23;20009;-63
2024/01/01 06:29:04;;;;;;;13.15;8.02;;;8.60;99.90;;;;;;6180899;23;20013;-62
2024/01/01 06:31:50;;;;;;;14.57;8.43;;;8.60;99.90;;;;;;6182211;23;20099;-62
2024/01/01 06:34:36;;;;;;;13.43;7.90;;;8.60;99.90;;;;;;6182385;23;20015;-62
2024/01/01 06:37:22;;;;;;;14.27;8.55;;;8.60;99.90;;;;;;6203778;23;20017;-62
2024/01/01 06:40:09;;;;;;;11.80;7.40;;;8.60;99.90;;;;;;6201368;23;20019;-62
2024/01/01 06:42:55;;;;;;;11.90;8.10;;;8.60;99.90;;;;;;6185348;23;20016;-69
2024/01/01 06:45:40;;;;;;;12.50;7.88;;;8.60;99.90;;;;;;6200736;23;20041;-70
2024/01/01 06:48:27;;;;;;;14.90;8.68;;;8.60;99.90;;;;;;6182143;23;20096;-69
2024/01/01 06:51:12;;;;;;;12.25;7.28;;;8.60;99.90;;;;;;6180885;23;20020;-70
2024/01/01 06:53:58;;;;;;;13.88;7.82;;;8.60;99.90;;;;;;6182380;23;20017;-73
2024/01/01 06:56:44;;;;;;;13.15;8.82;;;8.60;99.90;;;;;;6177712;23;20357;-70
2024/01/01 06:59:30;;;;;;;11.10;7.43;;;8.60;99.90;;;;;;6180898;23;20013;-80
2024/01/01 07:02:17;;;;;;;11.63;7.85;;;8.60;99.90;;;;;;6181035;23;20005;-71
2024/01/01 07:05:03;;;;;;;16.38;8.95;;;8.60;99.90;;;;;;6180868;23;20009;-76
2024/01/01 07:07:49;;;;;;;11.40;7.13;;;8.60;99.90;;;;;;6181900;23;20029;-76
2024/01/01 07:10:35;;;;;;;13.05;7.65;;;8.60;99.90;;;;;;6181177;23;20020;-73
2024/01/01 07:13:21;;;;;;;11.13;8.27;;;8.60;99.90;;;;;;6181929;23;20441;-74
2024/01/01 07:16:09;;;;;;;11.65;6.85;;;8.60;99.90;;;;;;6180395;23;20448;-73
2024/01/01 07:18:54;;;;;;;14.80;8.30;;;8.60;99.90;;;;;;6179752;23;20033;-72
2024/01/01 07:21:40;;;;;;;12.48;8.18;;;8.60;99.90;;;;;;6180807;23;20075;-72
2024/01/01 07:24:26;;;;;;;12.68;7.47;;;8.50;99.90;;;;;;6181430;23;20013;-72
2024/01/01 07:27:12;;;;;;;12.00;7.40;;;8.50;99.90;;;;;;6160251;23;20040;-73
2024/01/01 07:29:58;;;;;;;9.50;6.32;;;8.50;99.90;;;;;;6180809;23;20041;-72
2024/01/01 07:32:45;;;;;;;11.65;6.78;;;8.50;99.90;;;;;;6180543;23;20021;-71
2024/01/01 07:35:31;;;;;;;14.00;6.75;;;8.50;99.90;;;;;;6181097;23;20016;-72
2024/01/01 07:38:17;;;;;;;12.38;7.10;;;8.50;99.90;;;;;;6181276;23;20009;-72
2024/01/01 07:41:03;;;;;;;11.65;6.82;;;8.50;99.90;;;;;;6180911;23;20009;-73
2024/01/01 07:43:49;;;;;;;11.63;6.72;;;8.50;99.90;;;;;;6179700;23;20088;-72
2024/01/01 07:46:35;;;;;;;14.63;7.07;;;8.50;99.90;;;;;;6160551;23;20358;-71
2024/01/01 07:49:21;;;;;;;13.30;7.68;;;8.40;99.90;;;;;;6180911;23;20009;-73
2024/01/01 07:52:07;;;;;;;13.93;7.55;;;8.40;99.90;;;;;;6180472;23;20104;-74
2024/01/01 07:54:57;;;;;;;10.65;6.55;;;8.40;99.90;;;;;;6179062;23;20084;-73
2024/01/01 07:57:46;;;;;;;11.50;7.72;;;8.40;99.90;;;;;;6180834;23;20008;-72
2024/01/01 08:00:32;;;;;;;13.43;7.00;;;8.40;99.90;;;;;;6180750;23;20069;-71
2024/01/01 08:03:20;;;;;;;11.10;6.50;;;8.40;99.90;;;;;;6179363;23;20021;-74
2024/01/01 08:06:06;;;;;;;9.63;6.22;;;8.40;99.90;;;;;;6180611;23;20016;-71
2024/01/01 08:08:52;;;;;;;14.48;7.85;;;8.40;99.90;;;;;;6177651;23;20025;-72
2024/01/01 08:11:38;;;;;;;9.40;6.07;;;8.40;99.90;;;;;;6180030;23;20005;-71
2024/01/01 08:14:24;;;;;;;11.70;6.57;;;8.40;99.90;;;;;;6179435;23;20013;-71
2024/01/01 08:17:11;;;;;;;13.02;7.93;;;8.50;99.90;;;;;;6181064;23;20009;-72
2024/01/01 08:19:57;;;;;;;9.73;6.32;;;8.50;99.90;;;;;;6180458;23;20025;-71
2024/01/01 08:22:43;;;;;;;12.52;6.78;;;8.50;99.90;;;;;;6181017;23;20009;-72
2024/01/01 08:25:28;;;;;;;11.23;6.32;;;8.50;99.90;;;;;;6180417;23;20075;-72
2024/01/01 08:28:14;;;;;;;11.50;6.88;;;8.50;99.90;;;;;;6180262;23;20052;-72
2024/01/01 08:31:00;;;;;;;13.70;7.57;;;8.60;99.90;;;;;;6182566;23;20075;-73
2024/01/01 08:33:46;;;;;;;8.88;5.53;;;8.60;99.90;;;;;;6178065;23;20009;-71
2024/01/01 08:36:32;;;;;;;11.00;7.13;;;8.60;99.90;;;;;;6181054;23;20009;-70
2024/01/01 08:39:18;;;;;;;11.18;5.43;;;8.70;99.90;;;;;;6178613;23;20017;-71
2024/01/01 08:42:05;;;;;;;15.05;6.43;;;8.70;99.90;;;;;;6179463;23;20108;-69
2024/01/01 08:44:52;;;;;;;10.95;5.78;;;8.70;99.90;;;;;;6180770;23;20429;-70
2024/01/01 08:47:39;;;;;;;7.65;5.15;;;8.80;99.90;;;;;;6180160;23;20433;-72
2024/01/01 08:50:25;;;;;;;7.30;4.65;;;8.80;99.90;;;;;;6179951;23;20449;-69
2024/01/01 08:53:11;;;;;;;8.45;4.32;;;8.90;99.90;;;;;;6180827;23;20373;-70
2024/01/01 08:55:57;;;;;;;7.78;4.35;;;9.00;99.90;;;;;;6178580;23;20517;-71
2024/01/01 08:58:42;;;;;;;11.73;4.40;;;9.00;99.90;;;;;;6179938;23;20036;-71
2024/01/01 09:01:28;;;;;;;9.10;5.47;;;9.10;99.90;;;;;;6158767;23;20009;-72
2024/01/01 09:04:14;;;;;;;7.78;4.90;;;9.20;99.90;;;;;;6179110;23;20047;-72
2024/01/01 09:07:02;;;;;;;8.95;4.05;;;9.30;99.90;;;;;;6158759;23;20108;-71
2024/01/01 09:09:48;;;;;;;10.35;6.13;;;9.30;99.90;;;;;;6181929;23;20064;-71
2024/01/01 09:12:34;;;;;;;10.57;5.10;;;9.40;99.90;;;;;;6181162;23;20013;-72
2024/01/01 09:15:20;;;;;;;14.07;5.88;;;9.50;99.90;;;;;;6180748;23;20389;-72
2024/01/01 09:18:07;;;;;;;8.23;3.90;;;9.50;99.90;;;;;;6179105;23;20060;-74
2024/01/01 09:20:53;;;;;;;7.30;3.60;;;9.60;99.90;;;;;;6159991;23;20196;-71
2024/01/01 09:23:39;;;;;;;6.93;4.03;;;9.70;99.90;;;;;;6182503;23;20015;-70
2024/01/01 09:26:25;;;;;;;5.25;3.67;;;9.70;99.90;;;;;;6183032;23;20016;-70
2024/01/01 09:29:11;;;;;;;7.22;4.00;;;9.80;99.90;;;;;;6182876;23;20027;-70
2024/01/01 09:31:57;;;;;;;6.68;3.65;;;9.80;99.90;;;;;;6182524;23;20009;-70
2024/01/01 09:34:43;;;;;;;8.40;4.40;;;9.90;99.90;;;;;;6182778;23;20009;-70
2024/01/01 09:37:29;;;;;;;5.78;3.40;;;10.00;99.90;;;;;;6182476;23;20009;-70
2024/01/01 09:40:17;;;;;;;7.43;4.07;;;10.00;99.90;;;;;;6180880;23;20341;-71
2024/01/01 09:43:03;;;;;;;6.57;4.03;;;10.00;99.90;;;;;;6181421;23;20048;-70
2024/01/01 09:45:49;;;;;;;9.90;3.80;;;10.10;99.90;;;;;;6190075;23;20029;-69
2024/01/01 09:48:35;;;;;;;11.27;3.90;;;10.00;99.90;;;;;;6206564;23;20024;-70
2024/01/01 09:51:21;;;;;;;7.70;3.65;;;10.00;99.90;;;;;;6201103;23;20183;-70
2024/01/01 09:54:08;;;;;;;5.47;3.40;;;10.10;99.90;;;;;;6198767;23;20020;-69
2024/01/01 09:56:53;;;;;;;6.72;3.90;;;10.10;99.80;;;;;;6188057;23;20005;-70
2024/01/01 09:59:40;;;;;;;5.80;3.95;;;10.10;99.70;;;;;;6181962;23;20055;-70
2024/01/01 10:02:28;;;;;;;7.47;3.60;;;10.10;99.70;;;;;;6182204;23;20009;-70
2024/01/01 10:05:15;;;;;;;6.50;3.70;;;10.10;99.70;;;;;;6181045;23;20047;-71
2024/01/01 10:08:12;;;;;;;6.57;3.72;;;10.10;99.60;;;;;;6160658;23;20108;-70
2024/01/01 10:10:58;;;;;;;7.50;4.03;;;10.10;99.70;;;;;;6181434;23;20039;-70
2024/01/01 10:13:44;;;;;;;7.47;4.22;;;10.00;99.70;;;;;;6181111;23;20005;-71
2024/01/01 10:16:30;;;;;;;9.40;3.40;;;10.00;99.90;;;;;;6182280;23;20096;-70
2024/01/01 10:19:16;;;;;;;10.27;4.38;;;10.00;99.90;;;;;;6181115;23;20029;-70
2024/01/01 10:22:12;;;;;;;7.35;3.80;;;10.00;99.90;;;;;;6181399;23;20009;-70
2024/01/01 10:25:11;;;;;;;6.40;3.60;;;10.00;99.90;;;;;;6182219;23;20016;-70
2024/01/01 10:28:01;;;;;;;7.63;3.95;;;10.00;99.90;;;;;;6181561;23;20021;-69
2024/01/01 10:30:47;;;;;;;6.75;3.72;;;10.00;99.90;;;;;;6182128;23;20005;-70
2024/01/01 10:33:34;;;;;;;6.90;3.72;;;10.10;99.90;;;;;;6160392;23;20009;-71
2024/01/01 10:36:21;;;;;;;6.15;3.85;;;10.10;99.90;;;;;;6160294;23;20037;-70
2024/01/01 10:39:11;;;;;;;7.05;3.40;;;10.10;99.90;;;;;;6181844;23;20036;-69
2024/01/01 10:41:57;;;;;;;9.32;5.07;;;10.10;99.90;;;;;;6184011;23;20032;-70
2024/01/01 10:44:43;;;;;;;8.15;3.97;;;10.10;99.90;;;;;;6180165;23;20017;-69
2024/01/01 10:47:29;;;;;;;6.72;3.55;;;10.10;99.90;;;;;;6181776;23;20103;-70
2024/01/01 10:50:26;;;;;;;6.15;3.90;;;10.10;99.90;;;;;;6180480;23;20005;-70
2024/01/01 10:53:40;;;;;;;8.80;3.92;;;10.10;99.90;;;;;;6180723;23;20122;-70
2024/01/01 10:56:36;;;;;;;6.38;3.58;;;10.10;99.90;;;;;;6181777;23;20079;-70
2024/01/01 10:59:28;;;;;;;8.13;4.15;;;10.10;99.90;;;;;;6181700;23;20005;-71
2024/01/01 11:02:14;;;;;;;10.52;4.63;;;10.00;99.90;;;;;;6181843;23;20064;-71
2024/01/01 11:05:10;;;;;;;9.32;4.80;;;10.00;99.90;;;;;;6181764;23;20037;-70
2024/01/01 11:07:58;;;;;;;7.88;4.68;;;10.00;99.90;;;;;;6181239;23;20378;-72
2024/01/01 11:10:45;;;;;;;9.23;5.60;;;10.00;99.90;;;;;;6181608;23;20009;-78
2024/01/01 11:13:31;;;;;;;7.35;5.13;;;10.00;99.90;;;;;;6180765;23;20016;-78
2024/01/01 11:16:17;;;;;;;10.07;4.97;;;10.00;99.90;;;;;;6178678;23;20009;-76
2024/01/01 11:19:05;;;;;;;7.82;4.97;;;10.10;99.90;;;;;;6181133;23;20052;-76
2024/01/01 11:21:51;;;;;;;8.82;5.03;;;10.20;99.90;;;;;;6180591;23;20079;-75
2024/01/01 11:24:45;;;;;;;10.43;4.50;;;10.20;99.80;;;;;;6180918;23;20013;-74
2024/01/01 11:27:33;;;;;;;8.13;4.20;;;10.20;99.70;;;;;;6179216;23;20021;-75
2024/01/01 11:30:19;;;;;;;9.52;5.00;;;10.20;99.60;;;;;;6159983;23;20058;-76
2024/01/01 11:33:05;;;;;;;8.43;4.60;;;10.20;99.60;;;;;;6180590;23;20013;-75
2024/01/01 11:36:06;;;;;;;10.85;4.35;;;10.30;99.60;;;;;;6183559;23;20009;-79
2024/01/01 11:38:52;;;;;;;7.50;3.88;;;10.30;99.60;;;;;;6163453;23;20013;-79
2024/01/01 11:41:38;;;;;;;7.97;4.55;;;10.30;99.60;;;;;;6180087;23;20039;-63
2024/01/01 11:44:25;;;;;;;8.20;4.95;;;10.30;99.50;;;;;;6178962;23;20019;-63
2024/01/01 11:47:17;;;;;;;10.98;5.32;;;10.40;99.60;;;;;;6180653;23;20135;-63
2024/01/01 11:50:05;;;;;;;9.23;5.10;;;10.40;99.40;;;;;;6182036;23;20009;-63
2024/01/01 11:53:00;;;;;;;9.30;4.65;;;10.50;99.40;;;;;;6160610;23;20100;-63
2024/01/01 11:55:50;;;;;;;12.02;5.22;;;10.50;99.40;;;;;;6159118;23;20012;-64
2024/01/01 11:58:36;;;;;;;12.70;5.85;;;10.60;99.40;;;;;;6179478;23;20433;-64
2024/01/01 12:01:23;;;;;;;14.07;4.75;;;10.60;99.30;;;;;;6179379;23;20009;-63
2024/01/01 12:04:09;;;;;;;8.38;4.25;;;10.60;99.30;;;;;;6159421;23;20013;-63
2024/01/01 12:06:55;;;;;;;10.68;4.38;;;10.60;99.30;;;;;;6180619;23;20013;-63
2024/01/01 12:09:42;;;;;;;9.30;4.38;;;10.70;99.30;;;;;;6179291;23;20457;-64
2024/01/01 12:12:29;;;;;;;8.57;5.03;;;10.70;99.30;;;;;;6180314;23;20005;-64
2024/01/01 12:15:18;;;;;;;9.20;4.68;;;10.80;99.30;;;;;;6179029;23;20088;-63
2024/01/01 12:18:04;;;;;;;7.93;4.10;;;10.80;99.20;;;;;;6178011;23;20021;-64
2024/01/01 12:20:50;;;;;;;8.73;4.22;;;10.80;99.10;;;;;;6179083;23;20407;-63
2024/01/01 12:23:36;;;;;;;7.72;4.60;;;10.80;99.00;;;;;;6177233;23;20354;-63
2024/01/01 12:26:22;;;;;;;9.73;4.47;;;10.80;99.00;;;;;;6162384;23;20037;-63
2024/01/01 12:29:16;;;;;;;8.93;5.13;;;10.90;99.00;;;;;;6180078;23;20017;-64
2024/01/01 12:32:02;;;;;;;10.55;5.38;;;10.90;98.90;;;;;;6182447;23;20481;-64
2024/01/01 12:34:49;;;;;;;9.32;4.10;;;10.90;98.90;;;;;;6178203;23;20031;-62
2024/01/01 12:37:35;;;;;;;14.18;4.97;;;11.00;98.90;;;;;;6179071;23;20056;-63
2024/01/01 12:40:21;;;;;;;8.52;3.70;;;11.00;98.90;;;;;;6180928;23;20421;-63
2024/01/01 12:43:07;;;;;;;5.57;3.42;;;11.00;98.80;;;;;;6180170;23;20005;-65
2024/01/01 12:45:53;;;;;;;9.43;3.92;;;11.00;98.80;;;;;;6158681;23;20024;-64
2024/01/01 12:48:46;;;;;;;8.35;4.35;;;11.10;98.70;;;;;;6158901;23;20027;-65
2024/01/01 12:51:32;;;;;;;9.57;4.45;;;11.10;98.70;;;;;;6158653;23;20449;-64
2024/01/01 12:54:18;;;;;;;7.32;4.57;;;11.10;98.60;;;;;;6159506;23;20009;-62
2024/01/01 12:57:04;;;;;;;11.32;4.68;;;11.10;98.60;;;;;;6158646;23;20483;-63
2024/01/01 12:59:50;;;;;;;10.25;4.00;;;11.10;98.60;;;;;;6199505;23;20005;-62
2024/01/01 13:02:36;;;;;;;9.02;3.53;;;11.10;98.70;;;;;;6203911;23;20024;-62
2024/01/01 13:05:22;;;;;;;9.23;4.03;;;11.10;98.80;;;;;;6179859;23;20091;-63
2024/01/01 13:08:08;;;;;;;6.43;4.07;;;11.10;98.90;;;;;;6180892;23;20460;-63
2024/01/01 13:10:54;;;;;;;8.65;3.97;;;11.10;98.90;;;;;;6180852;23;20355;-64
2024/01/01 13:13:41;;;;;;;10.82;4.90;;;11.10;99.00;;;;;;6161061;23;20020;-63
2024/01/01 13:16:26;;;;;;;13.20;5.38;;;11.00;98.90;;;;;;6178888;23;20528;-63
2024/01/01 13:19:12;;;;;;;14.95;5.78;;;11.10;99.00;;;;;;6177183;23;20441;-63
2024/01/01 13:21:59;;;;;;;9.77;5.63;;;11.00;99.00;;;;;;6181582;23;20088;-63
2024/01/01 13:24:45;;;;;;;10.40;5.72;;;11.00;99.00;;;;;;6179107;23;20017;-62
2024/01/01 13:27:31;;;;;;;13.68;6.10;;;11.00;99.10;;;;;;6181261;23;20072;-62
2024/01/01 13:30:18;;;;;;;13.07;5.53;;;10.90;99.10;;;;;;6179641;23;20461;-62
2024/01/01 13:33:05;;;;;;;8.45;4.82;;;10.90;99.10;;;;;;6179689;23;20013;-62
2024/01/01 13:35:52;;;;;;;10.73;4.82;;;10.90;99.10;;;;;;6159044;23;20012;-63
2024/01/01 13:38:39;;;;;;;8.93;4.13;;;11.00;99.10;;;;;;6180520;23;20013;-62
2024/01/01 13:41:25;;;;;;;10.93;5.55;;;10.90;99.10;;;;;;6180213;23;20009;-63
2024/01/01 13:44:11;;;;;;;7.07;4.03;;;10.90;99.10;;;;;;6178720;23;20027;-63
2024/01/01 13:46:57;;;;;;;9.23;4.95;;;10.90;99.10;;;;;;6180772;23;20060;-63
2024/01/01 13:49:43;;;;;;;10.00;4.35;;;10.90;99.10;;;;;;6158726;23;20013;-63
2024/01/01 13:52:31;;;;;;;9.05;4.15;;;10.80;99.00;;;;;;6179535;23;20009;-63
2024/01/01 13:55:20;;;;;;;10.02;3.67;;;10.80;99.00;;;;;;6178634;23;20036;-63
2024/01/01 13:58:06;;;;;;;8.65;4.43;;;10.80;99.00;;;;;;6180073;23;20460;-63
2024/01/01 14:00:52;;;;;;;8.70;3.80;;;10.80;98.90;;;;;;6158323;23;20013;-63
2024/01/01 14:03:40;;;;;;;8.18;4.07;;;10.80;98.80;;;;;;6180786;23;20013;-63
2024/01/01 14:06:26;;;;;;;8.15;3.72;;;10.80;98.80;;;;;;6179899;23;20009;-63
2024/01/01 14:09:12;;;;;;;10.75;4.55;;;10.80;98.80;;;;;;6178630;23;20013;-62
2024/01/01 14:11:58;;;;;;;9.65;4.13;;;10.80;98.80;;;;;;6182108;23;20009;-62
2024/01/01 14:14:44;;;;;;;7.35;4.13;;;10.80;98.80;;;;;;6183678;23;20345;-62
2024/01/01 14:17:30;;;;;;;7.18;3.90;;;10.80;98.80;;;;;;6179666;23;20052;-63
2024/01/01 14:20:17;;;;;;;7.93;4.68;;;10.80;99.00;;;;;;6182481;23;20044;-79
2024/01/01 14:23:04;;;;;;;8.55;3.60;;;10.80;98.80;;;;;;6182000;23;20023;-79